createdAt,value
2022-12-08T00:01:11.741Z,4.97
2022-12-08T00:03:39.227Z,4.95
2022-12-08T00:06:25.610Z,4.40
2022-12-08T00:09:11.447Z,4.75
2022-12-08T00:11:39.646Z,4.95
2022-12-08T00:14:07.009Z,4.40
2022-12-08T00:16:34.372Z,5.30
2022-12-08T00:19:01.649Z,5.97
2022-12-08T00:21:29.597Z,4.90
2022-12-08T00:23:57.435Z,4.47
2022-12-08T00:26:24.852Z,4.25
2022-12-08T00:28:52.120Z,4.78
2022-12-08T00:31:19.451Z,5.50
2022-12-08T00:33:46.767Z,3.22
2022-12-08T00:36:14.735Z,4.15
2022-12-08T00:38:44.613Z,3.30
2022-12-08T00:41:16.204Z,3.42
2022-12-08T00:43:43.818Z,4.03
2022-12-08T00:46:12.439Z,4.20
2022-12-08T00:48:39.781Z,3.10
2022-12-08T00:51:07.145Z,3.10
2022-12-08T00:53:34.403Z,2.97
2022-12-08T00:56:01.675Z,3.15
2022-12-08T00:58:29.055Z,2.72
2022-12-08T01:00:56.371Z,2.45
2022-12-08T01:03:23.900Z,2.35
2022-12-08T01:05:51.209Z,4.78
2022-12-08T01:08:18.941Z,3.47
2022-12-08T01:10:46.254Z,3.03
2022-12-08T01:13:13.468Z,2.42
2022-12-08T01:15:40.737Z,2.75
2022-12-08T01:18:08.008Z,2.88
2022-12-08T01:20:35.299Z,3.08
2022-12-08T01:23:02.620Z,2.28
2022-12-08T01:25:29.861Z,2.45
2022-12-08T01:27:57.163Z,2.30
2022-12-08T01:30:24.613Z,2.80
2022-12-08T01:32:51.984Z,3.78
2022-12-08T01:35:19.247Z,3.20
2022-12-08T01:37:46.568Z,3.53
2022-12-08T01:40:13.950Z,3.45
2022-12-08T01:42:41.300Z,3.80
2022-12-08T01:45:15.204Z,3.80
2022-12-08T01:47:43.966Z,3.80
2022-12-08T01:50:12.295Z,4.03
2022-12-08T01:52:45.434Z,3.95
2022-12-08T01:55:16.599Z,4.93
2022-12-08T01:57:48.129Z,7.30
2022-12-08T02:00:16.943Z,4.85
2022-12-08T02:02:50.867Z,4.45
2022-12-08T02:05:19.072Z,3.97
2022-12-08T02:07:47.108Z,4.63
2022-12-08T02:10:17.199Z,4.07
2022-12-08T02:12:44.706Z,4.43
2022-12-08T02:15:12.140Z,5.85
2022-12-08T02:17:47.209Z,3.70
2022-12-08T02:20:32.857Z,4.00
2022-12-08T02:23:19.110Z,3.50
2022-12-08T02:26:11.693Z,5.00
2022-12-08T02:28:47.287Z,3.80
2022-12-08T02:31:37.923Z,3.78
2022-12-08T02:34:17.556Z,3.97
2022-12-08T02:36:51.029Z,3.67
2022-12-08T02:39:30.651Z,2.78
2022-12-08T02:42:19.408Z,2.95
2022-12-08T02:44:49.571Z,2.78
2022-12-08T02:47:18.898Z,4.25
2022-12-08T02:49:46.204Z,3.88
2022-12-08T02:52:13.436Z,3.35
2022-12-08T02:54:50.883Z,2.95
2022-12-08T02:57:18.587Z,3.13
2022-12-08T02:59:45.834Z,2.22
2022-12-08T03:02:13.123Z,2.85
2022-12-08T03:04:59.074Z,2.67
2022-12-08T03:07:47.800Z,2.20
2022-12-08T03:10:26.428Z,2.80
2022-12-08T03:12:57.167Z,3.70
2022-12-08T03:15:24.468Z,2.70
2022-12-08T03:17:53.703Z,4.47
2022-12-08T03:20:22.678Z,2.25
2022-12-08T03:22:51.394Z,3.95
2022-12-08T03:25:21.654Z,3.33
2022-12-08T03:27:49.237Z,4.57
2022-12-08T03:30:16.583Z,1.63
2022-12-08T03:33:02.721Z,2.25
2022-12-08T03:35:34.481Z,2.13
2022-12-08T03:38:06.020Z,2.00
2022-12-08T03:40:33.268Z,2.47
2022-12-08T03:43:00.580Z,2.20
2022-12-08T03:45:28.094Z,1.58
2022-12-08T03:47:55.403Z,2.10
2022-12-08T03:50:22.916Z,2.33
2022-12-08T03:52:50.156Z,2.63
2022-12-08T03:55:17.606Z,2.92
2022-12-08T03:57:45.136Z,2.60
2022-12-08T04:00:14.480Z,3.67
2022-12-08T04:02:41.815Z,3.35
2022-12-08T04:05:09.429Z,3.55
2022-12-08T04:07:36.691Z,4.57
2022-12-08T04:10:05.339Z,4.43
2022-12-08T04:12:32.792Z,4.40
2022-12-08T04:15:00.047Z,3.97
2022-12-08T04:17:27.989Z,3.20
2022-12-08T04:19:55.227Z,3.70
2022-12-08T04:22:22.591Z,3.97
2022-12-08T04:24:50.070Z,2.38
2022-12-08T04:27:17.730Z,2.50
2022-12-08T04:29:45.000Z,4.70
2022-12-08T04:32:12.183Z,2.13
2022-12-08T04:34:39.464Z,3.85
2022-12-08T04:37:06.784Z,1.80
2022-12-08T04:39:34.035Z,2.50
2022-12-08T04:42:01.302Z,3.55
2022-12-08T04:44:28.508Z,1.73
2022-12-08T04:46:56.348Z,2.53
2022-12-08T04:49:23.710Z,2.20
2022-12-08T04:51:50.955Z,3.85
2022-12-08T04:54:18.248Z,2.20
2022-12-08T04:56:45.536Z,4.10
2022-12-08T04:59:12.828Z,2.30
2022-12-08T05:01:40.134Z,1.85
2022-12-08T05:04:07.559Z,2.30
2022-12-08T05:06:34.831Z,2.67
2022-12-08T05:09:02.081Z,1.98
2022-12-08T05:11:29.309Z,2.00
2022-12-08T05:13:56.559Z,2.28
2022-12-08T05:16:23.892Z,3.97
2022-12-08T05:18:51.156Z,1.65
2022-12-08T05:21:18.450Z,2.70
2022-12-08T05:23:45.713Z,3.25
2022-12-08T05:26:13.032Z,2.28
2022-12-08T05:28:42.290Z,2.38
2022-12-08T05:31:10.696Z,3.33
2022-12-08T05:33:38.054Z,3.10
2022-12-08T05:36:05.391Z,3.25
2022-12-08T05:38:32.733Z,2.00
2022-12-08T05:41:00.076Z,4.10
2022-12-08T05:43:27.527Z,1.90
2022-12-08T05:45:54.924Z,2.35
2022-12-08T05:48:22.241Z,4.10
2022-12-08T05:50:49.846Z,4.30
2022-12-08T05:53:18.093Z,4.28
2022-12-08T05:55:45.594Z,5.25
2022-12-08T05:58:14.160Z,3.08
2022-12-08T06:00:41.681Z,3.75
2022-12-08T06:03:09.986Z,3.13
2022-12-08T06:05:37.487Z,2.90
2022-12-08T06:08:04.854Z,3.38
2022-12-08T06:10:32.157Z,4.22
2022-12-08T06:12:59.438Z,2.55
2022-12-08T06:15:26.882Z,2.95
2022-12-08T06:17:54.183Z,2.20
2022-12-08T06:20:21.484Z,2.60
2022-12-08T06:22:48.735Z,2.20
2022-12-08T06:25:16.090Z,3.08
2022-12-08T06:27:43.293Z,2.15
2022-12-08T06:30:10.689Z,2.05
2022-12-08T06:32:37.942Z,2.85
2022-12-08T06:35:05.505Z,2.17
2022-12-08T06:37:32.885Z,1.70
2022-12-08T06:40:00.172Z,2.10
2022-12-08T06:42:46.619Z,2.30
2022-12-08T06:45:15.141Z,1.77
2022-12-08T06:47:42.646Z,1.85
2022-12-08T06:50:10.342Z,1.70
2022-12-08T06:52:45.682Z,3.88
2022-12-08T06:55:35.329Z,2.45
2022-12-08T06:58:04.502Z,4.72
2022-12-08T07:00:31.723Z,2.00
2022-12-08T07:02:59.210Z,4.00
2022-12-08T07:05:26.560Z,3.40
2022-12-08T07:07:53.916Z,2.53
2022-12-08T07:10:21.255Z,2.10
2022-12-08T07:12:48.500Z,2.70
2022-12-08T07:15:16.239Z,2.75
2022-12-08T07:17:43.550Z,2.42
2022-12-08T07:20:10.948Z,2.20
2022-12-08T07:22:38.237Z,2.90
2022-12-08T07:25:05.687Z,1.92
2022-12-08T07:27:33.113Z,1.33
2022-12-08T07:30:00.304Z,1.50
2022-12-08T07:32:27.565Z,2.53
2022-12-08T07:34:54.816Z,2.30
2022-12-08T07:37:22.133Z,2.10
2022-12-08T07:39:49.390Z,2.53
2022-12-08T07:42:16.613Z,2.25
2022-12-08T07:44:46.946Z,2.00
2022-12-08T07:47:14.200Z,2.38
2022-12-08T07:49:41.792Z,2.35
2022-12-08T07:52:09.104Z,3.05
2022-12-08T07:54:36.412Z,3.03
2022-12-08T07:57:05.978Z,2.15
2022-12-08T07:59:33.518Z,2.60
2022-12-08T08:02:22.962Z,2.55
2022-12-08T08:04:50.710Z,2.10
2022-12-08T08:07:18.190Z,2.78
2022-12-08T08:09:45.895Z,2.15
2022-12-08T08:15:01.505Z,2.13
2022-12-08T08:17:29.831Z,3.72
2022-12-08T08:19:57.364Z,2.17
2022-12-08T08:22:25.300Z,2.07
2022-12-08T08:24:52.797Z,1.50
2022-12-08T08:27:20.543Z,2.63
2022-12-08T08:29:47.769Z,3.25
2022-12-08T08:32:15.006Z,2.40
2022-12-08T08:34:42.314Z,2.83
2022-12-08T08:37:09.882Z,2.28
2022-12-08T08:39:37.403Z,2.53
2022-12-08T08:42:04.777Z,2.53
2022-12-08T08:44:32.075Z,2.70
2022-12-08T08:46:59.348Z,2.57
2022-12-08T08:49:26.625Z,1.90
2022-12-08T08:51:53.927Z,2.50
2022-12-08T08:54:21.132Z,2.47
2022-12-08T08:56:48.461Z,2.72
2022-12-08T08:59:15.734Z,4.07
2022-12-08T09:01:43.074Z,2.60
2022-12-08T09:04:11.044Z,5.07
2022-12-08T09:06:38.714Z,2.10
2022-12-08T09:09:06.358Z,3.58
2022-12-08T09:11:33.868Z,2.17
2022-12-08T09:14:01.147Z,2.25
2022-12-08T09:16:29.283Z,3.03
2022-12-08T09:18:57.253Z,3.03
2022-12-08T09:21:26.028Z,1.40
2022-12-08T09:23:54.622Z,1.98
2022-12-08T09:26:22.489Z,2.42
2022-12-08T09:28:50.785Z,2.30
2022-12-08T09:31:18.952Z,3.45
2022-12-08T09:33:47.685Z,2.35
2022-12-08T09:36:15.294Z,1.95
2022-12-08T09:38:42.604Z,2.17
2022-12-08T09:41:36.822Z,2.20
2022-12-08T09:44:21.705Z,2.28
2022-12-08T09:46:51.915Z,2.65
2022-12-08T09:49:22.369Z,2.05
2022-12-08T09:51:49.667Z,2.00
2022-12-08T09:54:20.172Z,1.88
2022-12-08T09:56:48.089Z,1.70
2022-12-08T09:59:28.060Z,2.50
2022-12-08T10:01:55.983Z,2.63
2022-12-08T10:04:23.476Z,2.00
2022-12-08T10:06:53.725Z,2.83
2022-12-08T10:09:40.005Z,2.17
2022-12-08T10:12:25.785Z,2.25
2022-12-08T10:15:11.273Z,2.45
2022-12-08T10:17:41.653Z,1.83
2022-12-08T10:20:15.467Z,1.83
2022-12-08T10:22:44.929Z,2.10
2022-12-08T10:25:20.483Z,2.20
2022-12-08T10:27:49.965Z,2.45
2022-12-08T10:30:18.561Z,2.40
2022-12-08T10:32:46.681Z,2.45
2022-12-08T10:35:15.479Z,2.63
2022-12-08T10:37:42.820Z,2.30
2022-12-08T10:40:10.180Z,2.13
2022-12-08T10:42:41.876Z,2.38
2022-12-08T10:45:15.413Z,2.20
2022-12-08T10:47:45.482Z,3.15
2022-12-08T10:50:13.767Z,3.05
2022-12-08T10:52:41.599Z,4.93
2022-12-08T10:55:16.613Z,2.60
2022-12-08T10:57:43.920Z,3.75
2022-12-08T11:00:15.759Z,3.25
2022-12-08T11:02:54.572Z,2.40
2022-12-08T11:05:23.177Z,2.60
2022-12-08T11:07:54.623Z,2.65
2022-12-08T11:10:27.723Z,3.53
2022-12-08T11:12:55.313Z,2.58
2022-12-08T11:15:22.654Z,2.78
2022-12-08T11:18:00.531Z,2.85
2022-12-08T11:20:28.189Z,2.50
2022-12-08T11:22:56.587Z,2.30
2022-12-08T11:25:30.364Z,2.63
2022-12-08T11:27:58.706Z,3.17
2022-12-08T11:30:26.986Z,3.37
2022-12-08T11:32:55.979Z,3.25
2022-12-08T11:35:26.113Z,2.83
2022-12-08T11:38:03.121Z,3.50
2022-12-08T11:40:41.646Z,4.13
2022-12-08T11:43:27.791Z,3.63
2022-12-08T11:46:05.318Z,8.73
2022-12-08T11:48:45.824Z,5.10
2022-12-08T11:51:16.152Z,3.85
2022-12-08T11:53:43.426Z,5.10
2022-12-08T11:56:19.743Z,7.18
2022-12-08T11:58:49.711Z,6.38
2022-12-08T12:01:20.124Z,9.73
2022-12-08T12:03:53.402Z,5.43
2022-12-08T12:09:26.829Z,3.28
2022-12-08T12:12:19.217Z,3.53
2022-12-08T12:14:46.496Z,3.55
2022-12-08T12:17:36.826Z,8.23
2022-12-08T12:20:05.843Z,4.15
2022-12-08T12:22:35.593Z,9.35
2022-12-08T12:25:03.175Z,5.40
2022-12-08T12:27:30.365Z,7.85
2022-12-08T12:29:59.434Z,3.90
2022-12-08T12:32:28.437Z,4.78
2022-12-08T12:34:57.223Z,8.80
2022-12-08T12:37:26.017Z,3.70
2022-12-08T12:39:53.280Z,6.40
2022-12-08T12:42:49.102Z,3.40
2022-12-08T12:45:16.476Z,3.10
2022-12-08T12:47:55.947Z,2.83
2022-12-08T12:50:39.129Z,2.70
2022-12-08T12:53:19.065Z,2.67
2022-12-08T12:55:46.379Z,2.45
2022-12-08T12:58:42.401Z,2.20
2022-12-08T13:01:12.887Z,2.20
2022-12-08T13:03:46.068Z,2.13
2022-12-08T13:06:23.530Z,2.63
2022-12-08T13:08:51.837Z,1.85
2022-12-08T13:11:19.239Z,3.05
2022-12-08T13:14:01.278Z,2.92
2022-12-08T13:16:31.950Z,3.85
2022-12-08T13:19:02.502Z,2.72
2022-12-08T13:21:35.543Z,10.15
2022-12-08T13:24:20.818Z,2.88
2022-12-08T13:26:49.179Z,2.38
2022-12-08T13:29:18.185Z,3.28
2022-12-08T13:31:50.942Z,2.75
2022-12-08T13:34:25.219Z,2.30
2022-12-08T13:37:05.236Z,3.20
2022-12-08T13:39:41.460Z,3.65
2022-12-08T13:42:14.519Z,5.10
2022-12-08T13:45:24.192Z,3.20
2022-12-08T13:48:35.594Z,3.05
2022-12-08T13:59:43.720Z,5.15
2022-12-08T14:02:17.284Z,3.38
2022-12-08T14:05:16.917Z,3.80
2022-12-08T14:07:34.715Z,3.70
2022-12-08T14:10:03.706Z,2.70
2022-12-08T14:12:31.603Z,3.15
2022-12-08T14:15:04.214Z,2.70
2022-12-08T14:17:32.034Z,3.60
2022-12-08T14:20:04.129Z,8.65
2022-12-08T14:22:35.980Z,4.03
2022-12-08T14:25:04.337Z,8.77
2022-12-08T14:27:36.323Z,7.07
2022-12-08T14:30:30.595Z,3.38
2022-12-08T14:33:01.875Z,3.35
2022-12-08T14:35:30.279Z,2.60
2022-12-08T14:38:12.985Z,4.15
2022-12-08T14:40:47.878Z,4.03
2022-12-08T14:43:19.388Z,3.00
2022-12-08T14:45:47.673Z,3.00
2022-12-08T14:48:22.405Z,2.90
2022-12-08T14:51:16.217Z,2.60
2022-12-08T14:53:43.591Z,2.38
2022-12-08T14:56:18.723Z,2.83
2022-12-08T14:58:46.655Z,2.95
2022-12-08T15:01:16.960Z,2.45
2022-12-08T15:03:50.374Z,3.95
2022-12-08T15:06:20.963Z,4.28
2022-12-08T15:08:58.834Z,3.45
2022-12-08T15:11:33.555Z,3.57
2022-12-08T15:14:01.016Z,3.10
2022-12-08T15:16:37.587Z,2.92
2022-12-08T15:19:05.353Z,3.72
2022-12-08T15:21:35.957Z,3.47
2022-12-08T15:24:03.272Z,3.45
2022-12-08T15:26:33.279Z,3.10
2022-12-08T15:29:10.521Z,3.00
2022-12-08T15:31:37.842Z,2.92
2022-12-08T15:34:05.225Z,3.88
2022-12-08T15:36:32.551Z,3.80
2022-12-08T15:38:59.941Z,2.97
2022-12-08T15:41:27.264Z,3.60
2022-12-08T15:43:54.510Z,3.25
2022-12-08T15:46:21.846Z,3.72
2022-12-08T15:48:51.395Z,8.32
2022-12-08T15:51:22.376Z,4.53
2022-12-08T15:53:50.951Z,4.07
2022-12-08T15:56:27.403Z,2.83
2022-12-08T15:58:56.881Z,5.97
2022-12-08T16:01:25.748Z,2.88
2022-12-08T16:09:31.841Z,18.60
2022-12-08T16:12:18.394Z,3.67
2022-12-08T16:17:33.472Z,2.47
2022-12-08T16:20:00.991Z,2.85
2022-12-08T16:22:52.818Z,6.65
2022-12-08T16:25:19.746Z,3.83
2022-12-08T16:28:23.238Z,6.05
2022-12-08T16:30:36.120Z,3.60
2022-12-08T16:33:03.493Z,3.78
2022-12-08T16:35:31.320Z,3.85
2022-12-08T16:37:58.691Z,4.90
2022-12-08T16:40:26.023Z,4.60
2022-12-08T16:42:53.498Z,3.80
2022-12-08T16:45:25.659Z,2.85
2022-12-08T16:47:54.301Z,3.50
2022-12-08T16:50:26.661Z,3.50
2022-12-08T16:52:58.004Z,3.17
2022-12-08T16:55:25.350Z,4.60
2022-12-08T16:57:52.860Z,3.65
2022-12-08T17:00:21.811Z,3.83
2022-12-08T17:02:49.064Z,4.25
2022-12-08T17:05:17.406Z,3.87
2022-12-08T17:07:45.726Z,3.97
2022-12-08T17:10:14.926Z,3.38
2022-12-08T17:12:42.285Z,3.83
2022-12-08T17:15:14.282Z,5.70
2022-12-08T17:17:42.050Z,3.50
2022-12-08T17:20:10.710Z,4.53
2022-12-08T17:22:38.006Z,5.47
2022-12-08T17:25:06.178Z,7.18
2022-12-08T17:27:33.515Z,6.45
2022-12-08T17:30:00.792Z,5.40
2022-12-08T17:32:28.036Z,8.15
2022-12-08T17:34:55.333Z,4.68
2022-12-08T17:37:22.677Z,6.93
2022-12-08T17:39:49.924Z,10.35
2022-12-08T17:42:17.216Z,5.90
2022-12-08T17:44:46.557Z,5.95
2022-12-08T17:47:13.912Z,7.57
2022-12-08T17:49:41.272Z,4.78
2022-12-08T17:52:08.604Z,6.10
2022-12-08T17:54:36.465Z,5.55
2022-12-08T17:57:04.047Z,6.50
2022-12-08T17:59:31.309Z,5.65
2022-12-08T18:01:58.851Z,6.50
2022-12-08T18:04:27.142Z,5.90
2022-12-08T18:06:55.197Z,5.97
2022-12-08T18:09:22.523Z,6.03
2022-12-08T18:11:49.855Z,4.40
2022-12-08T18:14:17.157Z,5.57
2022-12-08T18:16:45.562Z,5.47
2022-12-08T18:19:13.715Z,6.17
2022-12-08T18:21:41.562Z,6.40
2022-12-08T18:24:09.563Z,6.32
2022-12-08T18:26:36.857Z,6.35
2022-12-08T18:29:04.401Z,4.65
2022-12-08T18:31:31.934Z,8.13
2022-12-08T18:33:59.254Z,5.50
2022-12-08T18:36:26.983Z,8.88
2022-12-08T18:38:54.475Z,8.30
2022-12-08T18:41:24.522Z,5.75
2022-12-08T18:43:52.060Z,7.07
2022-12-08T18:46:19.474Z,6.95
2022-12-08T18:48:47.728Z,7.45
2022-12-08T18:51:16.799Z,7.97
2022-12-08T18:53:44.499Z,8.05
2022-12-08T18:56:28.505Z,7.57
2022-12-08T18:59:01.300Z,8.85
2022-12-08T19:01:30.714Z,7.97
2022-12-08T19:04:26.665Z,10.02
2022-12-08T19:06:46.312Z,10.85
2022-12-08T19:09:14.164Z,10.77
2022-12-08T19:11:42.045Z,10.32
2022-12-08T19:14:09.419Z,10.60
2022-12-08T19:16:36.700Z,9.77
2022-12-08T19:19:04.452Z,8.25
2022-12-08T19:21:31.817Z,11.23
2022-12-08T19:23:59.921Z,10.15
2022-12-08T19:26:27.979Z,8.45
2022-12-08T19:28:55.374Z,10.68
2022-12-08T19:31:22.669Z,11.20
2022-12-08T19:33:50.048Z,13.95
2022-12-08T19:36:18.137Z,9.20
2022-12-08T19:39:03.937Z,9.40
2022-12-08T19:41:50.102Z,11.30
2022-12-08T19:44:41.404Z,10.77
2022-12-08T19:47:08.880Z,14.15
2022-12-08T19:49:36.351Z,13.75
2022-12-08T19:52:03.632Z,11.65
2022-12-08T19:54:31.169Z,10.68
2022-12-08T19:56:58.480Z,10.50
2022-12-08T19:59:30.146Z,15.73
2022-12-08T20:01:58.646Z,17.25
2022-12-08T20:04:26.791Z,13.90
2022-12-08T20:06:54.641Z,13.70
2022-12-08T20:09:22.427Z,12.88
2022-12-08T20:11:50.863Z,15.23
2022-12-08T20:14:22.199Z,17.10
2022-12-08T20:16:50.418Z,14.45
2022-12-08T20:19:17.862Z,17.70
2022-12-08T20:21:45.165Z,16.60
2022-12-08T20:24:12.508Z,16.92
2022-12-08T20:26:39.786Z,14.35
2022-12-08T20:29:07.312Z,13.98
2022-12-08T20:31:34.751Z,16.98
2022-12-08T20:34:02.424Z,16.02
2022-12-08T20:36:29.955Z,17.55
2022-12-08T20:38:57.324Z,15.95
2022-12-08T20:41:24.936Z,16.65
2022-12-08T20:43:52.508Z,18.38
2022-12-08T20:46:20.879Z,18.65
2022-12-08T20:48:48.781Z,19.38
2022-12-08T20:51:20.347Z,19.48
2022-12-08T20:53:47.972Z,15.63
2022-12-08T20:56:19.413Z,16.25
2022-12-08T20:58:47.334Z,17.45
2022-12-08T21:01:16.297Z,16.38
2022-12-08T21:03:44.376Z,17.05
2022-12-08T21:06:12.488Z,19.10
2022-12-08T21:08:40.004Z,21.33
2022-12-08T21:11:07.740Z,30.35
2022-12-08T21:13:35.153Z,23.63
2022-12-08T21:16:02.592Z,21.85
2022-12-08T21:18:33.262Z,17.17
2022-12-08T21:21:06.476Z,20.58
2022-12-08T21:23:35.049Z,19.40
2022-12-08T21:26:02.624Z,20.05
2022-12-08T21:28:30.072Z,22.13
2022-12-08T21:30:57.451Z,20.45
2022-12-08T21:33:24.998Z,22.17
2022-12-08T21:36:02.195Z,21.67
2022-12-08T21:38:29.592Z,22.25
2022-12-08T21:41:01.990Z,21.77
2022-12-08T21:43:29.464Z,24.17
2022-12-08T21:45:56.738Z,23.27
2022-12-08T21:48:24.389Z,22.90
2022-12-08T21:50:53.435Z,22.80
2022-12-08T21:53:21.340Z,25.08
2022-12-08T21:55:49.017Z,22.10
2022-12-08T21:58:16.439Z,23.70
2022-12-08T22:00:43.920Z,23.77
2022-12-08T22:03:15.469Z,26.63
2022-12-08T22:05:43.127Z,24.27
2022-12-08T22:08:10.720Z,26.08
2022-12-08T22:10:38.375Z,26.70
2022-12-08T22:13:05.913Z,27.25
2022-12-08T22:15:33.458Z,30.83
2022-12-08T22:18:00.959Z,31.35
2022-12-08T22:20:28.521Z,31.60
2022-12-08T22:22:56.017Z,30.05
2022-12-08T22:25:23.358Z,32.38
2022-12-08T22:27:50.591Z,31.50
2022-12-08T22:30:18.017Z,34.10
2022-12-08T22:32:45.331Z,31.60
2022-12-08T22:35:12.721Z,33.05
2022-12-08T22:37:39.967Z,32.17
2022-12-08T22:40:07.808Z,33.92
2022-12-08T22:42:35.303Z,31.63
2022-12-08T22:45:02.551Z,32.67
2022-12-08T22:47:29.903Z,37.35
2022-12-08T22:49:57.205Z,36.67
2022-12-08T22:52:24.695Z,37.00
2022-12-08T22:54:52.039Z,37.15
2022-12-08T22:57:19.337Z,34.13
2022-12-08T22:59:46.674Z,38.17
2022-12-08T23:02:14.781Z,34.00
2022-12-08T23:04:42.204Z,34.85
2022-12-08T23:07:09.650Z,35.15
2022-12-08T23:09:36.931Z,36.38
2022-12-08T23:12:04.695Z,35.80
2022-12-08T23:14:32.033Z,30.58
2022-12-08T23:16:59.633Z,33.00
2022-12-08T23:19:27.270Z,31.90
2022-12-08T23:21:54.545Z,32.58
2022-12-08T23:24:21.832Z,30.50
2022-12-08T23:26:49.241Z,27.88
2022-12-08T23:29:16.498Z,27.17
2022-12-08T23:31:44.059Z,25.30
2022-12-08T23:34:11.670Z,28.30
2022-12-08T23:36:38.991Z,26.08
2022-12-08T23:39:06.402Z,27.75
2022-12-08T23:41:33.850Z,28.88
2022-12-08T23:44:01.394Z,31.23
2022-12-08T23:46:29.171Z,26.15
2022-12-08T23:48:56.557Z,25.13
2022-12-08T23:51:24.109Z,28.98
2022-12-08T23:53:51.417Z,27.40
2022-12-08T23:56:18.868Z,28.20
2022-12-08T23:58:46.494Z,31.27
